createdAt,value
2023-01-28T00:03:49.758Z,19.6
2023-01-28T00:08:52.340Z,19.8
2023-01-28T00:13:54.464Z,19.4
2023-01-28T00:18:56.429Z,19.4
2023-01-28T00:23:58.452Z,19.5
2023-01-28T00:29:00.775Z,20.2
2023-01-28T00:34:03.043Z,20.1
2023-01-28T00:39:05.219Z,20.1
2023-01-28T00:44:07.159Z,19.1
2023-01-28T00:49:09.172Z,20.4
2023-01-28T00:54:11.151Z,21.2
2023-01-28T00:59:13.231Z,21.1
2023-01-28T01:04:15.170Z,20.5
2023-01-28T01:09:17.221Z,22
2023-01-28T01:14:19.274Z,21.9
2023-01-28T01:19:21.258Z,20.9
2023-01-28T01:24:23.302Z,20.9
2023-01-28T01:29:25.527Z,20.7
2023-01-28T01:34:27.585Z,22.2
2023-01-28T01:39:29.614Z,21.5
2023-01-28T01:44:31.723Z,21.6
2023-01-28T01:49:34.083Z,21.7
2023-01-28T01:54:36.164Z,23.4
2023-01-28T01:59:38.291Z,23.3
2023-01-28T02:04:40.453Z,22.8
2023-01-28T02:09:42.514Z,22.9
2023-01-28T02:14:44.915Z,41.5
2023-01-28T02:19:45.588Z,23.7
2023-01-28T02:24:47.615Z,24
2023-01-28T02:29:49.738Z,23.4
2023-01-28T02:34:52.108Z,21.7
2023-01-28T02:39:54.321Z,23.9
2023-01-28T02:44:57.573Z,22.6
2023-01-28T02:49:59.983Z,23.9
2023-01-28T02:55:02.811Z,23.4
2023-01-28T03:00:04.956Z,23.2
2023-01-28T03:05:07.052Z,23.6
2023-01-28T03:10:09.205Z,23.2
2023-01-28T03:15:11.287Z,22.7
2023-01-28T03:20:15.067Z,24.2
2023-01-28T03:25:17.465Z,24.1
2023-01-28T03:30:20.297Z,24.1
2023-01-28T03:35:23.596Z,24.8
2023-01-28T03:40:26.203Z,27.6
2023-01-28T03:45:28.355Z,24.7
2023-01-28T03:50:30.674Z,26.6
2023-01-28T03:55:32.707Z,27
2023-01-28T04:00:34.794Z,25.9
2023-01-28T04:05:36.703Z,26.8
2023-01-28T04:10:38.674Z,26
2023-01-28T04:15:40.640Z,26
2023-01-28T04:20:43.067Z,26.2
2023-01-28T04:25:47.177Z,27.5
2023-01-28T04:30:49.445Z,24.7
2023-01-28T04:35:52.095Z,23
2023-01-28T04:40:54.194Z,26
2023-01-28T04:45:56.325Z,25.2
2023-01-28T04:50:58.378Z,23.8
2023-01-28T04:56:00.360Z,25
2023-01-28T05:01:02.411Z,24.1
2023-01-28T05:06:05.107Z,24.3
2023-01-28T05:11:11.141Z,24.2
2023-01-28T05:16:13.216Z,23.3
2023-01-28T05:21:15.192Z,24.2
2023-01-28T05:26:17.279Z,23.3
2023-01-28T05:31:19.347Z,22
2023-01-28T05:36:21.628Z,23
2023-01-28T05:41:23.620Z,24.2
2023-01-28T05:46:26.333Z,24.4
2023-01-28T05:51:28.471Z,25.1
2023-01-28T05:56:30.578Z,27.3
2023-01-28T06:01:32.641Z,26.1
2023-01-28T06:06:35.533Z,24.5
2023-01-28T06:11:38.283Z,26.1
2023-01-28T06:16:40.517Z,25.4
2023-01-28T06:21:42.989Z,25.6
2023-01-28T06:31:50.731Z,24.4
2023-01-28T06:36:53.520Z,25.2
2023-01-28T06:41:56.047Z,24.1
2023-01-28T06:46:58.353Z,24.4
2023-01-28T06:52:00.568Z,27.4
2023-01-28T06:57:02.864Z,23.7
2023-01-28T07:02:05.153Z,24.9
2023-01-28T07:07:07.662Z,22.6
2023-01-28T07:12:09.965Z,22.7
2023-01-28T07:17:12.338Z,22.4
2023-01-28T07:22:15.102Z,24.7
2023-01-28T07:27:17.399Z,23.8
2023-01-28T07:32:19.670Z,24
2023-01-28T07:37:22.063Z,25.8
2023-01-28T07:42:24.204Z,22.6
2023-01-28T07:47:27.098Z,22.5
2023-01-28T07:52:30.169Z,24.5
2023-01-28T07:57:32.695Z,24.1
2023-01-28T08:02:35.052Z,21.1
2023-01-28T08:07:37.788Z,23.7
2023-01-28T08:12:40.161Z,23.7
2023-01-28T08:17:42.210Z,22
2023-01-28T08:22:44.253Z,22.4
2023-01-28T08:27:47.059Z,20.2
2023-01-28T08:32:52.444Z,21.5
2023-01-28T08:37:57.565Z,20.5
2023-01-28T08:43:00.113Z,19.8
2023-01-28T08:48:03.532Z,20.4
2023-01-28T08:53:06.567Z,20.6
2023-01-28T08:58:09.429Z,20.4
2023-01-28T09:03:11.918Z,19.7
2023-01-28T09:08:14.128Z,19.1
2023-01-28T09:13:16.519Z,16.8
2023-01-28T09:18:18.618Z,18.1
2023-01-28T09:23:20.773Z,18.5
2023-01-28T09:28:23.507Z,19.3
2023-01-28T09:33:26.053Z,18.9
2023-01-28T09:38:29.158Z,20.4
2023-01-28T09:43:31.474Z,19.5
2023-01-28T09:48:33.892Z,19.1
2023-01-28T09:53:36.142Z,19.3
2023-01-28T09:58:38.646Z,17.9
2023-01-28T10:03:41.003Z,18.4
2023-01-28T10:08:43.473Z,17.4
2023-01-28T10:13:45.662Z,16.8
2023-01-28T10:18:47.764Z,18
2023-01-28T10:23:49.811Z,18.1
2023-01-28T10:28:51.939Z,19.4
2023-01-28T10:33:54.300Z,18.3
2023-01-28T10:38:58.399Z,19
2023-01-28T10:44:00.910Z,20.2
2023-01-28T10:49:03.620Z,18.5
2023-01-28T10:54:05.872Z,18.7
2023-01-28T10:59:08.378Z,15.7
2023-01-28T11:04:10.713Z,16.8
2023-01-28T11:09:14.719Z,16.1
2023-01-28T11:14:17.589Z,16.5
2023-01-28T11:19:20.574Z,14.7
2023-01-28T11:24:23.471Z,16.8
2023-01-28T11:29:26.493Z,14.2
2023-01-28T11:34:28.762Z,13.1
2023-01-28T11:39:32.197Z,12.8
2023-01-28T11:44:34.858Z,12
2023-01-28T11:49:37.341Z,14.2
2023-01-28T11:54:40.976Z,15.9
2023-01-28T11:59:44.356Z,13.6
2023-01-28T12:04:47.438Z,13.7
2023-01-28T12:09:49.952Z,14.3
2023-01-28T12:14:52.181Z,13.8
2023-01-28T12:19:54.417Z,13.3
2023-01-28T12:24:56.648Z,14.6
2023-01-28T12:29:58.896Z,14
2023-01-28T12:35:01.214Z,13.5
2023-01-28T12:40:03.617Z,14
2023-01-28T12:45:05.697Z,14.8
2023-01-28T12:50:08.383Z,15.9
2023-01-28T12:55:10.539Z,15.6
2023-01-28T13:00:12.995Z,15.2
2023-01-28T13:05:16.922Z,14.9
2023-01-28T13:10:19.536Z,15.3
2023-01-28T13:15:22.460Z,17.1
2023-01-28T13:20:24.752Z,18.6
2023-01-28T13:25:27.313Z,17.2
2023-01-28T13:30:29.499Z,17.8
2023-01-28T13:35:31.997Z,20
2023-01-28T13:40:35.008Z,21.3
2023-01-28T13:45:37.343Z,23.1
2023-01-28T13:50:40.029Z,22.7
2023-01-28T13:55:48.286Z,24.4
2023-01-28T14:00:50.915Z,24.5
2023-01-28T14:05:53.259Z,23.5
2023-01-28T14:10:55.517Z,23
2023-01-28T14:15:57.878Z,25.7
2023-01-28T14:21:00.534Z,25
2023-01-28T14:26:02.886Z,26.7
2023-01-28T14:31:05.217Z,24.8
2023-01-28T14:36:10.174Z,24.8
2023-01-28T14:41:12.522Z,24.2
2023-01-28T14:46:14.660Z,23.5
2023-01-28T14:51:17.167Z,24.1
2023-01-28T14:56:19.520Z,24.7
2023-01-28T15:01:21.626Z,25.4
2023-01-28T15:06:24.110Z,26.6
2023-01-28T15:11:26.188Z,26
2023-01-28T15:16:28.708Z,27.4
2023-01-28T15:21:30.964Z,27.6
2023-01-28T15:26:33.124Z,26.6
2023-01-28T15:31:35.487Z,28.8
2023-01-28T15:36:37.576Z,27.7
2023-01-28T15:41:39.919Z,27
2023-01-28T15:46:42.274Z,30.2
2023-01-28T15:51:44.375Z,29.7
2023-01-28T15:56:46.973Z,26.9
2023-01-28T16:01:49.173Z,28.2
2023-01-28T16:06:51.334Z,27.1
2023-01-28T16:11:53.395Z,31
2023-01-28T16:16:55.756Z,30.9
2023-01-28T16:21:59.397Z,32.4
2023-01-28T16:27:01.718Z,30.2
2023-01-28T16:32:04.044Z,29.6
2023-01-28T16:37:06.541Z,31.5
2023-01-28T16:42:08.719Z,34.6
2023-01-28T16:47:11.206Z,60.8
2023-01-28T16:52:13.264Z,34.4
2023-01-28T16:57:15.304Z,30.5
2023-01-28T17:02:17.378Z,31.1
2023-01-28T17:07:20.180Z,30.5
2023-01-28T17:12:23.628Z,32.4
2023-01-28T17:17:25.917Z,32.2
2023-01-28T17:22:28.426Z,29.7
2023-01-28T17:27:30.479Z,31.4
2023-01-28T17:32:32.490Z,35
2023-01-28T17:37:34.582Z,34.2
2023-01-28T17:42:36.743Z,33.2
2023-01-28T17:47:39.402Z,34.8
2023-01-28T17:52:40.180Z,34.9
2023-01-28T17:57:42.407Z,34.2
2023-01-28T18:02:44.463Z,35.3
2023-01-28T18:07:47.123Z,36.5
2023-01-28T18:12:49.585Z,36.4
2023-01-28T18:17:51.839Z,33.7
2023-01-28T18:22:54.006Z,32.9
2023-01-28T18:27:56.229Z,33
2023-01-28T18:32:58.335Z,34.4
2023-01-28T18:38:00.479Z,33.8
2023-01-28T18:43:02.878Z,34.1
2023-01-28T18:48:06.263Z,35.5
2023-01-28T18:53:08.765Z,36.5
2023-01-28T18:58:11.519Z,34.8
2023-01-28T19:03:14.479Z,34.4
2023-01-28T19:08:16.674Z,37.6
2023-01-28T19:13:19.815Z,37.4
2023-01-28T19:18:22.978Z,37.9
2023-01-28T19:23:25.467Z,34
2023-01-28T19:28:30.030Z,34.8
2023-01-28T19:33:32.286Z,34.5
2023-01-28T19:38:34.949Z,35.3
2023-01-28T19:43:37.360Z,33.3
2023-01-28T19:48:42.041Z,34.5
2023-01-28T19:53:47.499Z,44.6
2023-01-28T19:58:50.689Z,37.5
2023-01-28T20:03:53.114Z,36.2
2023-01-28T20:08:55.119Z,37.2
2023-01-28T20:13:57.275Z,33.6
2023-01-28T20:18:59.845Z,34.8
2023-01-28T20:24:02.812Z,35.1
2023-01-28T20:29:05.800Z,35.9
2023-01-28T20:34:08.078Z,35.9
2023-01-28T20:39:10.806Z,33.8
2023-01-28T20:44:13.553Z,33.8
2023-01-28T20:49:15.946Z,35.7
2023-01-28T20:54:18.464Z,38.4
2023-01-28T20:59:21.784Z,35
2023-01-28T21:04:24.215Z,35.1
2023-01-28T21:09:32.081Z,33.8
2023-01-28T21:14:35.446Z,33.9
2023-01-28T21:19:42.795Z,35.2
2023-01-28T21:24:41.790Z,37.6
2023-01-28T21:29:43.936Z,36.4
2023-01-28T21:34:46.556Z,33.8
2023-01-28T21:39:49.927Z,35.7
2023-01-28T21:44:52.290Z,38.8
2023-01-28T21:49:54.511Z,36
2023-01-28T21:54:56.834Z,34.4
2023-01-28T21:59:59.155Z,38.3
2023-01-28T22:05:01.287Z,37.3
2023-01-28T22:10:03.637Z,35.5
2023-01-28T22:15:05.737Z,34.2
2023-01-28T22:20:07.769Z,34.4
2023-01-28T22:25:10.179Z,34.6
2023-01-28T22:30:13.327Z,33
2023-01-28T22:35:17.788Z,34.1
2023-01-28T22:40:19.803Z,76.9
2023-01-28T22:45:22.850Z,38
2023-01-28T22:50:26.067Z,26.1
2023-01-28T22:55:28.281Z,20.1
2023-01-28T23:00:30.510Z,15.7
2023-01-28T23:05:32.692Z,12.6
2023-01-28T23:10:45.454Z,22.9
2023-01-28T23:15:42.341Z,11.2
2023-01-28T23:20:44.370Z,11.9
2023-01-28T23:25:46.447Z,12
2023-01-28T23:30:48.464Z,12.3
2023-01-28T23:35:52.141Z,11.5
2023-01-28T23:40:54.352Z,11.7
2023-01-28T23:45:56.780Z,11.6
2023-01-28T23:50:58.824Z,13
2023-01-28T23:56:00.957Z,11.9
